createdAt,value
2022-08-26T00:00:19.665Z,18.50
2022-08-26T00:03:24.447Z,18.50
2022-08-26T00:06:30.271Z,18.50
2022-08-26T00:09:37.334Z,18.50
2022-08-26T00:12:43.949Z,18.50
2022-08-26T00:15:51.133Z,18.50
2022-08-26T00:18:56.461Z,18.50
2022-08-26T00:22:00.702Z,18.50
2022-08-26T00:25:07.161Z,18.50
2022-08-26T00:28:13.702Z,18.60
2022-08-26T00:31:18.319Z,18.60
2022-08-26T00:34:22.477Z,18.60
2022-08-26T00:37:27.106Z,18.60
2022-08-26T00:40:36.515Z,18.50
2022-08-26T00:43:47.136Z,18.60
2022-08-26T00:46:58.263Z,18.60
2022-08-26T00:50:08.193Z,18.60
2022-08-26T00:53:24.014Z,18.60
2022-08-26T00:56:43.229Z,18.60
2022-08-26T00:59:52.971Z,18.60
2022-08-26T01:02:59.321Z,18.60
2022-08-26T01:06:03.869Z,18.60
2022-08-26T01:09:09.267Z,18.60
2022-08-26T01:12:14.196Z,18.60
2022-08-26T01:15:25.394Z,18.60
2022-08-26T01:18:30.353Z,18.60
2022-08-26T01:22:14.161Z,18.60
2022-08-26T01:25:20.821Z,18.60
2022-08-26T01:28:29.245Z,18.60
2022-08-26T01:31:42.640Z,18.70
2022-08-26T01:34:48.208Z,18.60
2022-08-26T01:37:54.995Z,18.70
2022-08-26T01:41:00.646Z,18.60
2022-08-26T01:44:09.829Z,18.70
2022-08-26T01:47:16.627Z,18.70
2022-08-26T01:50:31.748Z,18.70
2022-08-26T01:53:38.276Z,18.70
2022-08-26T01:56:47.777Z,18.70
2022-08-26T01:59:58.387Z,18.70
2022-08-26T02:03:17.989Z,18.70
2022-08-26T02:06:23.677Z,18.60
2022-08-26T02:09:29.599Z,18.60
2022-08-26T02:12:36.438Z,18.60
2022-08-26T02:15:43.966Z,18.60
2022-08-26T02:18:50.467Z,18.60
2022-08-26T02:22:01.471Z,18.60
2022-08-26T02:25:24.635Z,18.60
2022-08-26T02:28:34.356Z,18.60
2022-08-26T02:31:38.632Z,18.60
2022-08-26T02:34:44.081Z,18.60
2022-08-26T02:37:50.107Z,18.50
2022-08-26T02:40:55.432Z,18.50
2022-08-26T02:44:00.274Z,18.50
2022-08-26T02:47:05.349Z,18.50
2022-08-26T02:50:09.907Z,18.40
2022-08-26T02:53:15.934Z,18.50
2022-08-26T02:56:20.509Z,18.50
2022-08-26T02:59:25.304Z,18.40
2022-08-26T03:02:30.009Z,18.40
2022-08-26T03:05:35.355Z,18.30
2022-08-26T03:08:39.946Z,18.40
2022-08-26T03:11:44.468Z,18.40
2022-08-26T03:14:48.948Z,18.30
2022-08-26T03:17:53.256Z,18.30
2022-08-26T03:20:58.368Z,18.20
2022-08-26T03:24:02.846Z,18.20
2022-08-26T03:27:07.365Z,18.20
2022-08-26T03:30:34.325Z,18.20
2022-08-26T03:33:39.259Z,18.20
2022-08-26T03:36:43.585Z,18.20
2022-08-26T03:39:48.768Z,18.20
2022-08-26T03:42:53.479Z,18.30
2022-08-26T03:45:57.863Z,18.20
2022-08-26T03:49:02.529Z,18.20
2022-08-26T03:52:07.258Z,18.20
2022-08-26T03:55:12.671Z,18.20
2022-08-26T03:58:17.304Z,18.20
2022-08-26T04:01:21.580Z,18.20
2022-08-26T04:04:26.147Z,18.20
2022-08-26T04:07:30.284Z,18.20
2022-08-26T04:10:38.342Z,18.20
2022-08-26T04:13:43.358Z,18.20
2022-08-26T04:16:48.743Z,18.20
2022-08-26T04:19:54.086Z,18.20
2022-08-26T04:22:58.589Z,18.20
2022-08-26T04:26:03.361Z,18.20
2022-08-26T04:29:13.065Z,18.20
2022-08-26T04:32:17.775Z,18.20
2022-08-26T04:35:25.587Z,18.20
2022-08-26T04:38:30.798Z,18.20
2022-08-26T04:41:36.998Z,18.30
2022-08-26T04:44:41.646Z,18.30
2022-08-26T04:47:46.807Z,18.30
2022-08-26T04:50:51.557Z,18.30
2022-08-26T04:53:57.735Z,18.40
2022-08-26T04:57:02.410Z,18.40
2022-08-26T05:00:10.407Z,18.50
2022-08-26T05:03:17.286Z,18.60
2022-08-26T05:06:22.060Z,18.60
2022-08-26T05:09:26.882Z,18.70
2022-08-26T05:12:31.573Z,18.80
2022-08-26T05:15:36.961Z,18.90
2022-08-26T05:18:43.525Z,19.20
2022-08-26T05:21:49.546Z,19.20
2022-08-26T05:24:54.198Z,19.20
2022-08-26T05:27:58.441Z,19.30
2022-08-26T05:31:13.682Z,19.40
2022-08-26T05:34:20.818Z,19.60
2022-08-26T05:37:25.729Z,19.60
2022-08-26T05:40:35.731Z,19.90
2022-08-26T05:43:40.019Z,20.10
2022-08-26T05:46:45.965Z,20.20
2022-08-26T05:49:51.556Z,20.10
2022-08-26T05:52:56.495Z,20.20
2022-08-26T05:56:02.535Z,20.60
2022-08-26T05:59:14.252Z,20.60
2022-08-26T06:02:19.240Z,20.90
2022-08-26T06:05:23.798Z,21.00
2022-08-26T06:08:28.132Z,21.30
2022-08-26T06:11:33.322Z,21.20
2022-08-26T06:14:38.543Z,21.50
2022-08-26T06:17:42.902Z,21.60
2022-08-26T06:20:57.003Z,22.00
2022-08-26T06:24:26.886Z,22.00
2022-08-26T06:27:32.918Z,22.30
2022-08-26T06:30:41.578Z,22.90
2022-08-26T06:33:46.603Z,23.00
2022-08-26T06:36:53.177Z,23.10
2022-08-26T06:39:57.794Z,23.50
2022-08-26T06:43:02.113Z,23.80
2022-08-26T06:46:10.113Z,23.90
2022-08-26T06:49:17.365Z,24.10
2022-08-26T06:52:24.572Z,24.50
2022-08-26T06:55:29.295Z,24.70
2022-08-26T06:58:35.526Z,23.80
2022-08-26T07:01:46.542Z,23.70
2022-08-26T07:04:51.305Z,23.80
2022-08-26T07:07:56.895Z,24.10
2022-08-26T07:11:06.588Z,24.60
2022-08-26T07:14:13.034Z,24.40
2022-08-26T07:17:18.967Z,24.60
2022-08-26T07:20:24.777Z,25.10
2022-08-26T07:23:30.154Z,24.50
2022-08-26T07:26:34.571Z,24.30
2022-08-26T07:29:39.983Z,24.70
2022-08-26T07:32:44.682Z,25.10
2022-08-26T07:35:49.054Z,24.70
2022-08-26T07:38:54.728Z,25.50
2022-08-26T07:42:03.813Z,25.70
2022-08-26T07:45:12.562Z,26.30
2022-08-26T07:48:17.887Z,26.00
2022-08-26T07:51:27.212Z,25.70
2022-08-26T07:54:32.378Z,25.90
2022-08-26T07:57:37.002Z,26.30
2022-08-26T08:00:45.005Z,26.20
2022-08-26T08:03:51.533Z,25.80
2022-08-26T08:06:56.256Z,26.30
2022-08-26T08:10:00.795Z,27.20
2022-08-26T08:13:07.063Z,26.80
2022-08-26T08:16:13.999Z,25.50
2022-08-26T08:19:18.353Z,26.30
2022-08-26T08:22:23.673Z,26.10
2022-08-26T08:25:29.182Z,27.20
2022-08-26T08:28:34.234Z,26.80
2022-08-26T08:31:56.908Z,27.30
2022-08-26T08:35:02.960Z,28.40
2022-08-26T08:38:16.067Z,27.90
2022-08-26T08:41:45.592Z,27.90
2022-08-26T08:44:52.985Z,27.60
2022-08-26T08:48:00.683Z,26.50
2022-08-26T08:51:18.425Z,27.30
2022-08-26T08:54:23.279Z,26.40
2022-08-26T08:57:53.963Z,26.00
2022-08-26T09:01:04.728Z,26.30
2022-08-26T09:04:18.947Z,26.60
2022-08-26T09:07:47.067Z,26.30
2022-08-26T09:10:59.150Z,27.50
2022-08-26T09:14:03.669Z,28.30
2022-08-26T09:17:24.518Z,28.30
2022-08-26T09:20:32.163Z,28.40
2022-08-26T09:23:41.846Z,28.60
2022-08-26T09:26:48.313Z,27.50
2022-08-26T09:29:59.003Z,27.80
2022-08-26T09:33:10.145Z,29.10
2022-08-26T09:36:22.850Z,29.60
2022-08-26T09:39:38.139Z,29.40
2022-08-26T09:42:42.586Z,29.80
2022-08-26T09:45:58.446Z,30.10
2022-08-26T09:49:25.551Z,29.20
2022-08-26T09:52:31.327Z,29.50
2022-08-26T09:55:37.184Z,29.00
2022-08-26T09:58:44.863Z,28.80
2022-08-26T10:01:49.664Z,28.60
2022-08-26T10:04:57.110Z,28.70
2022-08-26T10:08:25.966Z,28.80
2022-08-26T10:11:47.267Z,29.60
2022-08-26T10:14:57.978Z,29.70
2022-08-26T10:18:15.893Z,29.90
2022-08-26T10:21:45.473Z,30.50
2022-08-26T10:24:55.276Z,29.70
2022-08-26T10:28:18.554Z,30.10
2022-08-26T10:31:49.159Z,30.00
2022-08-26T10:34:55.965Z,29.90
2022-08-26T10:38:07.655Z,29.20
2022-08-26T10:41:22.274Z,29.70
2022-08-26T10:44:28.158Z,28.50
2022-08-26T10:47:50.167Z,30.20
2022-08-26T10:50:57.167Z,28.80
2022-08-26T10:54:16.951Z,29.40
2022-08-26T10:57:42.404Z,30.50
2022-08-26T11:01:14.347Z,29.80
2022-08-26T11:04:42.367Z,29.50
2022-08-26T11:07:54.890Z,29.90
2022-08-26T11:11:00.280Z,29.90
2022-08-26T11:14:07.279Z,31.00
2022-08-26T11:17:11.840Z,33.20
2022-08-26T11:20:41.856Z,32.90
2022-08-26T11:23:50.332Z,33.90
2022-08-26T11:26:56.698Z,33.70
2022-08-26T11:30:13.218Z,31.80
2022-08-26T11:33:51.809Z,32.70
2022-08-26T11:36:57.392Z,32.20
2022-08-26T11:40:07.261Z,30.10
2022-08-26T11:43:18.831Z,30.90
2022-08-26T11:46:27.351Z,30.90
2022-08-26T11:49:33.356Z,31.40
2022-08-26T11:52:37.958Z,32.40
2022-08-26T11:55:44.840Z,31.60
2022-08-26T11:58:56.670Z,33.90
2022-08-26T12:02:01.297Z,34.10
2022-08-26T12:05:08.036Z,32.50
2022-08-26T12:08:17.730Z,31.40
2022-08-26T12:11:29.640Z,32.50
2022-08-26T12:14:34.215Z,32.80
2022-08-26T12:17:42.134Z,33.40
2022-08-26T12:20:48.147Z,32.70
2022-08-26T12:23:55.661Z,30.00
2022-08-26T12:27:11.543Z,29.70
2022-08-26T12:30:20.308Z,30.60
2022-08-26T12:33:26.286Z,30.40
2022-08-26T12:36:42.986Z,30.40
2022-08-26T12:39:49.286Z,29.20
2022-08-26T12:42:53.810Z,29.00
2022-08-26T12:46:00.606Z,30.00
2022-08-26T12:49:06.593Z,28.00
2022-08-26T12:53:00.538Z,27.70
2022-08-26T12:56:20.866Z,28.80
2022-08-26T12:59:26.761Z,28.30
2022-08-26T13:02:39.289Z,27.60
2022-08-26T13:05:44.387Z,28.50
2022-08-26T13:09:01.315Z,28.70
2022-08-26T13:12:06.119Z,28.40
2022-08-26T13:15:10.877Z,29.40
2022-08-26T13:18:15.033Z,29.00
2022-08-26T13:21:22.699Z,28.50
2022-08-26T13:24:44.261Z,27.20
2022-08-26T13:27:49.078Z,27.10
2022-08-26T13:30:53.389Z,27.50
2022-08-26T13:33:57.798Z,27.90
2022-08-26T13:37:02.359Z,28.30
2022-08-26T13:40:07.852Z,29.30
2022-08-26T13:43:12.287Z,29.70
2022-08-26T13:46:16.687Z,30.20
2022-08-26T13:49:22.747Z,29.80
2022-08-26T13:52:30.805Z,29.30
2022-08-26T13:55:35.696Z,28.20
2022-08-26T13:58:39.793Z,28.40
2022-08-26T14:01:44.097Z,29.00
2022-08-26T14:04:48.809Z,28.20
2022-08-26T14:07:53.965Z,27.80
2022-08-26T14:10:58.997Z,28.00
2022-08-26T14:14:03.362Z,27.40
2022-08-26T14:17:07.804Z,27.90
2022-08-26T14:20:20.646Z,27.70
2022-08-26T14:23:26.241Z,27.70
2022-08-26T14:26:30.764Z,28.00
2022-08-26T14:29:35.160Z,28.30
2022-08-26T14:32:43.655Z,28.00
2022-08-26T14:35:49.083Z,27.30
2022-08-26T14:38:55.941Z,27.40
2022-08-26T14:42:00.736Z,27.50
2022-08-26T14:45:07.475Z,27.80
2022-08-26T14:48:12.351Z,26.90
2022-08-26T14:51:16.489Z,26.70
2022-08-26T14:54:21.484Z,26.60
2022-08-26T14:57:25.780Z,26.20
2022-08-26T15:00:30.710Z,26.00
2022-08-26T15:03:35.074Z,25.60
2022-08-26T15:06:39.915Z,25.60
2022-08-26T15:09:44.294Z,25.60
2022-08-26T15:12:48.766Z,26.10
2022-08-26T15:15:53.083Z,26.10
2022-08-26T15:18:57.887Z,26.50
2022-08-26T15:22:03.558Z,26.80
2022-08-26T15:25:09.001Z,26.40
2022-08-26T15:28:13.515Z,26.60
2022-08-26T15:31:18.429Z,26.50
2022-08-26T15:34:22.994Z,26.10
2022-08-26T15:37:27.540Z,26.20
2022-08-26T15:40:32.071Z,25.60
2022-08-26T15:43:39.464Z,24.80
2022-08-26T15:46:44.464Z,24.80
2022-08-26T15:49:49.282Z,24.30
2022-08-26T15:52:53.852Z,24.10
2022-08-26T15:56:00.184Z,23.90
2022-08-26T15:59:08.018Z,23.60
2022-08-26T16:02:12.750Z,23.40
2022-08-26T16:05:18.296Z,23.30
2022-08-26T16:08:22.803Z,23.30
2022-08-26T16:11:27.485Z,23.20
2022-08-26T16:14:31.920Z,23.20
2022-08-26T16:17:37.596Z,23.00
2022-08-26T16:20:55.400Z,23.00
2022-08-26T16:24:15.554Z,23.00
2022-08-26T16:27:19.850Z,22.60
2022-08-26T16:30:27.998Z,22.60
2022-08-26T16:33:32.303Z,22.80
2022-08-26T16:36:38.433Z,22.70
2022-08-26T16:39:45.110Z,22.70
2022-08-26T16:42:50.833Z,22.60
2022-08-26T16:45:56.029Z,22.40
2022-08-26T16:49:03.486Z,22.50
2022-08-26T16:52:09.233Z,22.40
2022-08-26T16:55:15.490Z,22.40
2022-08-26T16:58:22.122Z,22.50
2022-08-26T17:01:27.617Z,22.40
2022-08-26T17:04:32.155Z,22.40
2022-08-26T17:07:37.440Z,22.30
2022-08-26T17:13:51.554Z,22.20
2022-08-26T17:16:57.111Z,22.20
2022-08-26T17:20:07.853Z,22.20
2022-08-26T17:23:12.314Z,22.10
2022-08-26T17:26:16.714Z,22.00
2022-08-26T17:29:21.003Z,22.00
2022-08-26T17:32:25.550Z,22.00
2022-08-26T17:35:30.382Z,21.90
2022-08-26T17:38:36.729Z,22.00
2022-08-26T17:41:43.477Z,22.00
2022-08-26T17:44:48.625Z,22.00
2022-08-26T17:47:55.861Z,22.00
2022-08-26T17:51:00.325Z,21.80
2022-08-26T17:54:05.025Z,21.80
2022-08-26T17:57:10.656Z,21.80
2022-08-26T18:00:23.214Z,21.80
2022-08-26T18:03:27.752Z,21.80
2022-08-26T18:06:32.361Z,21.80
2022-08-26T18:09:36.930Z,21.80
2022-08-26T18:12:41.884Z,21.80
2022-08-26T18:15:46.986Z,21.80
2022-08-26T18:18:53.229Z,21.70
2022-08-26T18:21:58.543Z,21.60
2022-08-26T18:25:04.835Z,21.60
2022-08-26T18:28:09.658Z,21.60
2022-08-26T18:31:15.371Z,21.60
2022-08-26T18:34:20.964Z,21.50
2022-08-26T18:37:28.014Z,21.50
2022-08-26T18:40:38.211Z,21.50
2022-08-26T18:43:43.206Z,21.40
2022-08-26T18:46:49.887Z,21.40
2022-08-26T18:49:54.844Z,21.40
2022-08-26T18:52:59.214Z,21.40
2022-08-26T18:56:03.490Z,21.40
2022-08-26T18:59:09.575Z,21.40
2022-08-26T19:02:14.225Z,21.40
2022-08-26T19:05:18.890Z,21.30
2022-08-26T19:08:23.498Z,21.40
2022-08-26T19:11:32.285Z,21.30
2022-08-26T19:14:41.771Z,21.30
2022-08-26T19:17:46.154Z,21.20
2022-08-26T19:20:50.525Z,21.20
2022-08-26T19:23:59.964Z,21.20
2022-08-26T19:27:04.781Z,21.20
2022-08-26T19:30:10.066Z,21.30
2022-08-26T19:33:15.539Z,21.30
2022-08-26T19:36:23.625Z,21.30
2022-08-26T19:39:27.923Z,21.30
2022-08-26T19:42:32.459Z,21.30
2022-08-26T19:45:37.743Z,21.30
2022-08-26T19:48:44.318Z,21.30
2022-08-26T19:51:48.523Z,21.30
2022-08-26T19:54:52.908Z,21.30
2022-08-26T19:57:57.502Z,21.30
2022-08-26T20:01:01.919Z,21.20
2022-08-26T20:04:06.438Z,21.20
2022-08-26T20:07:14.131Z,21.20
2022-08-26T20:10:23.860Z,21.20
2022-08-26T20:13:28.406Z,21.20
2022-08-26T20:16:33.056Z,21.10
2022-08-26T20:19:56.290Z,21.10
2022-08-26T20:23:01.962Z,21.00
2022-08-26T20:26:06.268Z,21.00
2022-08-26T20:29:16.374Z,20.90
2022-08-26T20:32:21.795Z,20.90
2022-08-26T20:35:26.520Z,20.80
2022-08-26T20:38:31.093Z,20.70
2022-08-26T20:41:35.518Z,20.70
2022-08-26T20:44:43.256Z,20.70
2022-08-26T20:48:00.150Z,20.70
2022-08-26T20:51:05.431Z,20.60
2022-08-26T20:54:12.024Z,20.50
2022-08-26T20:57:16.922Z,20.40
2022-08-26T21:00:23.013Z,20.40
2022-08-26T21:03:31.806Z,20.50
2022-08-26T21:06:36.661Z,20.40
2022-08-26T21:09:41.432Z,20.40
2022-08-26T21:12:46.785Z,20.30
2022-08-26T21:15:50.875Z,20.30
2022-08-26T21:18:55.450Z,20.30
2022-08-26T21:21:59.762Z,20.30
2022-08-26T21:25:04.520Z,20.20
2022-08-26T21:28:09.448Z,20.20
2022-08-26T21:31:16.990Z,20.10
2022-08-26T21:34:21.414Z,20.10
2022-08-26T21:37:27.562Z,20.00
2022-08-26T21:40:32.481Z,20.00
2022-08-26T21:43:37.693Z,19.90
2022-08-26T21:46:43.921Z,19.80
2022-08-26T21:49:48.477Z,19.80
2022-08-26T21:52:52.533Z,19.70
2022-08-26T21:55:57.779Z,19.70
2022-08-26T21:59:02.505Z,19.60
2022-08-26T22:02:07.495Z,19.50
2022-08-26T22:05:12.053Z,19.40
2022-08-26T22:08:19.835Z,19.40
2022-08-26T22:11:25.924Z,19.30
2022-08-26T22:14:31.074Z,19.40
2022-08-26T22:17:35.726Z,19.40
2022-08-26T22:20:40.634Z,19.40
2022-08-26T22:23:45.788Z,19.40
2022-08-26T22:26:50.855Z,19.30
2022-08-26T22:29:55.338Z,19.40
2022-08-26T22:32:59.624Z,19.40
2022-08-26T22:36:04.389Z,19.30
2022-08-26T22:39:10.610Z,19.30
2022-08-26T22:42:15.520Z,19.30
2022-08-26T22:45:20.186Z,19.30
2022-08-26T22:48:26.428Z,19.30
2022-08-26T22:51:31.929Z,19.30
2022-08-26T22:54:36.195Z,19.30
2022-08-26T22:57:40.591Z,19.40
2022-08-26T23:00:46.566Z,19.30
2022-08-26T23:03:51.424Z,19.30
2022-08-26T23:06:56.252Z,19.30
2022-08-26T23:10:01.781Z,19.40
2022-08-26T23:13:08.132Z,19.40
2022-08-26T23:16:13.471Z,19.40
2022-08-26T23:19:22.711Z,19.50
2022-08-26T23:22:27.215Z,19.40
2022-08-26T23:25:32.507Z,19.50
2022-08-26T23:28:38.222Z,19.50
2022-08-26T23:31:43.123Z,19.50
2022-08-26T23:34:57.044Z,19.50
2022-08-26T23:38:01.733Z,19.60
2022-08-26T23:41:06.564Z,19.60
2022-08-26T23:44:12.459Z,19.70
2022-08-26T23:47:17.391Z,19.70
2022-08-26T23:50:23.766Z,19.70
2022-08-26T23:53:28.198Z,19.80
2022-08-26T23:56:32.496Z,19.80
2022-08-26T23:59:38.707Z,19.80
